createdAt,value
2023-05-02T00:01:26.601Z,12.90
2023-05-02T00:04:05.819Z,13.10
2023-05-02T00:06:34.669Z,13.10
2023-05-02T00:09:05.529Z,13.00
2023-05-02T00:11:37.388Z,13.00
2023-05-02T00:14:14.284Z,13.00
2023-05-02T00:16:52.806Z,13.00
2023-05-02T00:19:25.569Z,12.90
2023-05-02T00:21:55.086Z,13.00
2023-05-02T00:24:30.597Z,13.00
2023-05-02T00:26:59.424Z,12.90
2023-05-02T00:29:28.639Z,12.80
2023-05-02T00:31:59.200Z,12.70
2023-05-02T00:34:34.893Z,12.80
2023-05-02T00:37:05.504Z,12.80
2023-05-02T00:39:38.062Z,12.90
2023-05-02T00:42:11.985Z,12.90
2023-05-02T00:44:40.882Z,12.90
2023-05-02T00:47:10.884Z,13.00
2023-05-02T00:49:41.862Z,13.00
2023-05-02T00:52:11.746Z,13.00
2023-05-02T00:54:43.425Z,12.90
2023-05-02T00:57:13.763Z,12.90
2023-05-02T00:59:44.513Z,12.80
2023-05-02T01:02:52.229Z,12.90
2023-05-02T01:06:01.915Z,12.70
2023-05-02T01:09:10.031Z,12.60
2023-05-02T01:12:17.156Z,12.80
2023-05-02T01:14:59.731Z,12.80
2023-05-02T01:17:42.902Z,12.70
2023-05-02T01:20:35.056Z,12.60
2023-05-02T01:23:49.518Z,12.50
2023-05-02T01:26:41.281Z,12.40
2023-05-02T01:29:12.754Z,12.30
2023-05-02T01:31:51.449Z,12.40
2023-05-02T01:34:23.617Z,12.40
2023-05-02T01:37:01.163Z,12.50
2023-05-02T01:39:35.426Z,12.60
2023-05-02T01:42:06.519Z,12.60
2023-05-02T01:44:39.618Z,12.60
2023-05-02T01:47:11.467Z,12.60
2023-05-02T01:49:46.628Z,12.60
2023-05-02T01:52:47.872Z,12.50
2023-05-02T01:55:18.816Z,12.50
2023-05-02T01:57:54.397Z,12.50
2023-05-02T02:00:26.566Z,12.50
2023-05-02T02:03:09.591Z,12.60
2023-05-02T02:05:42.299Z,12.60
2023-05-02T02:08:19.304Z,12.60
2023-05-02T02:11:10.739Z,12.60
2023-05-02T02:13:51.281Z,12.60
2023-05-02T02:16:28.283Z,12.60
2023-05-02T02:19:10.152Z,12.60
2023-05-02T02:21:51.605Z,12.60
2023-05-02T02:24:26.931Z,12.60
2023-05-02T02:26:55.201Z,12.50
2023-05-02T02:29:24.818Z,12.60
2023-05-02T02:31:55.993Z,12.60
2023-05-02T02:34:25.972Z,12.60
2023-05-02T02:37:21.098Z,12.50
2023-05-02T02:40:23.148Z,12.40
2023-05-02T02:43:32.412Z,12.40
2023-05-02T02:46:42.939Z,12.30
2023-05-02T02:50:11.893Z,12.20
2023-05-02T02:56:30.432Z,12.20
2023-05-02T02:59:48.832Z,12.00
2023-05-02T03:02:20.242Z,12.00
2023-05-02T03:04:55.240Z,12.00
2023-05-02T03:07:24.128Z,12.10
2023-05-02T03:09:54.147Z,12.10
2023-05-02T03:12:23.869Z,12.10
2023-05-02T03:14:53.611Z,12.10
2023-05-02T03:17:26.244Z,12.20
2023-05-02T03:20:05.190Z,12.10
2023-05-02T03:22:33.652Z,12.10
2023-05-02T03:25:02.604Z,12.10
2023-05-02T03:27:33.874Z,12.10
2023-05-02T03:30:06.966Z,12.10
2023-05-02T03:32:43.430Z,12.10
2023-05-02T03:35:15.747Z,12.10
2023-05-02T03:37:48.852Z,12.10
2023-05-02T03:40:16.717Z,12.10
2023-05-02T03:42:49.095Z,12.20
2023-05-02T03:45:19.101Z,12.20
2023-05-02T03:47:57.805Z,12.40
2023-05-02T03:50:34.739Z,12.50
2023-05-02T03:53:03.499Z,12.30
2023-05-02T03:55:33.162Z,12.50
2023-05-02T03:58:04.007Z,12.40
2023-05-02T04:00:39.986Z,12.30
2023-05-02T04:03:09.952Z,12.20
2023-05-02T04:05:40.235Z,12.10
2023-05-02T04:08:11.755Z,12.10
2023-05-02T04:10:41.892Z,12.00
2023-05-02T04:13:12.523Z,12.00
2023-05-02T04:15:50.376Z,12.00
2023-05-02T04:18:20.919Z,11.90
2023-05-02T04:20:52.917Z,11.90
2023-05-02T04:23:23.896Z,11.90
2023-05-02T04:25:59.065Z,11.80
2023-05-02T04:28:31.503Z,11.80
2023-05-02T04:30:59.988Z,11.80
2023-05-02T04:33:29.996Z,11.80
2023-05-02T04:36:09.006Z,11.80
2023-05-02T04:38:38.017Z,11.70
2023-05-02T04:41:09.855Z,11.70
2023-05-02T04:43:40.307Z,11.70
2023-05-02T04:46:07.761Z,11.60
2023-05-02T04:48:34.911Z,11.40
2023-05-02T04:51:03.497Z,11.30
2023-05-02T04:53:35.909Z,11.50
2023-05-02T04:56:05.439Z,11.70
2023-05-02T04:58:38.524Z,11.80
2023-05-02T05:01:10.595Z,11.90
2023-05-02T05:03:39.087Z,11.80
2023-05-02T05:06:10.120Z,12.00
2023-05-02T05:08:42.127Z,12.10
2023-05-02T05:11:09.604Z,12.20
2023-05-02T05:13:38.644Z,12.00
2023-05-02T05:16:15.135Z,11.90
2023-05-02T05:18:45.023Z,11.80
2023-05-02T05:21:14.629Z,11.70
2023-05-02T05:23:46.522Z,11.70
2023-05-02T05:26:17.830Z,11.60
2023-05-02T05:29:00.349Z,11.50
2023-05-02T05:31:37.018Z,11.50
2023-05-02T05:34:05.812Z,11.50
2023-05-02T05:36:41.818Z,11.70
2023-05-02T05:39:13.536Z,11.70
2023-05-02T05:41:43.964Z,11.70
2023-05-02T05:44:15.438Z,11.70
2023-05-02T05:46:46.056Z,11.80
2023-05-02T05:49:17.822Z,11.90
2023-05-02T05:51:48.379Z,11.90
2023-05-02T05:54:19.322Z,11.80
2023-05-02T05:56:53.526Z,11.80
2023-05-02T05:59:26.300Z,11.80
2023-05-02T06:02:00.282Z,11.80
2023-05-02T06:04:28.876Z,11.90
2023-05-02T06:06:58.811Z,11.80
2023-05-02T06:09:28.457Z,11.70
2023-05-02T06:11:59.042Z,11.70
2023-05-02T06:14:27.192Z,11.70
2023-05-02T06:17:02.311Z,11.80
2023-05-02T06:19:33.990Z,11.80
2023-05-02T06:22:04.968Z,11.90
2023-05-02T06:24:34.068Z,11.90
2023-05-02T06:27:02.726Z,11.80
2023-05-02T06:29:30.888Z,11.70
2023-05-02T06:32:01.506Z,11.60
2023-05-02T06:34:37.315Z,11.60
2023-05-02T06:37:07.768Z,11.50
2023-05-02T06:39:35.034Z,11.50
2023-05-02T06:42:05.776Z,11.60
2023-05-02T06:44:34.502Z,11.60
2023-05-02T06:47:09.427Z,11.50
2023-05-02T06:49:36.803Z,11.50
2023-05-02T06:52:13.467Z,11.50
2023-05-02T06:54:44.464Z,11.50
2023-05-02T06:57:17.289Z,11.50
2023-05-02T06:59:47.023Z,11.60
2023-05-02T07:02:15.839Z,11.80
2023-05-02T07:04:44.412Z,11.90
2023-05-02T07:07:13.566Z,12.00
2023-05-02T07:09:43.068Z,12.00
2023-05-02T07:12:21.082Z,12.10
2023-05-02T07:14:49.809Z,12.20
2023-05-02T07:17:19.287Z,12.20
2023-05-02T07:19:56.707Z,12.20
2023-05-02T07:22:31.984Z,12.20
2023-05-02T07:25:09.424Z,12.30
2023-05-02T07:27:50.607Z,12.30
2023-05-02T07:30:21.928Z,12.30
2023-05-02T07:32:52.336Z,12.40
2023-05-02T07:35:23.838Z,12.50
2023-05-02T07:37:55.356Z,12.40
2023-05-02T07:40:25.266Z,12.50
2023-05-02T07:42:56.410Z,12.50
2023-05-02T07:45:26.158Z,12.50
2023-05-02T07:47:55.841Z,12.60
2023-05-02T07:50:27.104Z,12.50
2023-05-02T07:52:57.595Z,12.60
2023-05-02T07:55:28.178Z,12.60
2023-05-02T07:57:59.141Z,12.70
2023-05-02T08:00:27.965Z,12.80
2023-05-02T08:03:05.757Z,12.90
2023-05-02T08:05:34.795Z,12.90
2023-05-02T08:08:11.120Z,12.90
2023-05-02T08:10:42.205Z,12.90
2023-05-02T08:13:09.369Z,12.90
2023-05-02T08:15:45.790Z,12.90
2023-05-02T08:18:17.320Z,12.90
2023-05-02T08:20:45.812Z,13.00
2023-05-02T08:23:16.840Z,13.00
2023-05-02T08:25:46.998Z,13.10
2023-05-02T08:28:16.641Z,13.20
2023-05-02T08:30:46.822Z,13.30
2023-05-02T08:33:16.389Z,13.50
2023-05-02T08:35:45.089Z,13.70
2023-05-02T08:38:23.510Z,13.90
2023-05-02T08:40:56.272Z,13.90
2023-05-02T08:43:25.173Z,14.00
2023-05-02T08:46:03.167Z,14.00
2023-05-02T08:48:47.848Z,14.00
2023-05-02T08:53:53.320Z,14.50
2023-05-02T08:56:25.653Z,14.60
2023-05-02T08:59:03.291Z,14.80
2023-05-02T09:01:46.378Z,14.80
2023-05-02T09:04:37.892Z,14.70
2023-05-02T09:07:06.418Z,14.70
2023-05-02T09:09:35.047Z,14.70
2023-05-02T09:12:13.701Z,14.70
2023-05-02T09:14:45.392Z,14.70
2023-05-02T09:17:15.144Z,14.70
2023-05-02T09:19:45.328Z,14.80
2023-05-02T09:22:27.222Z,14.80
2023-05-02T09:25:01.648Z,14.80
2023-05-02T09:27:39.652Z,14.80
2023-05-02T09:30:29.443Z,14.90
2023-05-02T09:33:07.056Z,15.00
2023-05-02T09:35:48.218Z,15.00
2023-05-02T09:38:32.043Z,15.00
2023-05-02T09:41:07.257Z,14.90
2023-05-02T09:43:36.702Z,15.00
2023-05-02T09:46:10.651Z,15.10
2023-05-02T09:49:00.137Z,15.30
2023-05-02T09:51:37.567Z,15.30
2023-05-02T09:54:15.348Z,15.30
2023-05-02T09:56:59.170Z,15.30
2023-05-02T09:59:29.897Z,15.30
2023-05-02T10:02:12.286Z,15.30
2023-05-02T10:04:44.848Z,15.30
2023-05-02T10:07:16.291Z,15.30
2023-05-02T10:10:08.984Z,15.40
2023-05-02T10:13:05.577Z,15.50
2023-05-02T10:15:44.310Z,15.60
2023-05-02T10:19:12.217Z,15.50
2023-05-02T10:21:40.913Z,15.40
2023-05-02T10:24:12.700Z,15.40
2023-05-02T10:26:48.919Z,15.30
2023-05-02T10:29:25.185Z,15.20
2023-05-02T10:31:53.991Z,15.20
2023-05-02T10:34:25.090Z,15.10
2023-05-02T10:36:55.601Z,15.00
2023-05-02T10:39:28.062Z,14.90
2023-05-02T10:42:09.867Z,15.00
2023-05-02T10:44:44.147Z,15.00
2023-05-02T10:47:27.788Z,15.00
2023-05-02T10:50:05.780Z,15.00
2023-05-02T10:52:44.468Z,15.10
2023-05-02T10:55:23.766Z,15.30
2023-05-02T10:58:20.207Z,15.40
2023-05-02T11:00:53.474Z,15.50
2023-05-02T11:04:02.352Z,15.60
2023-05-02T11:06:39.354Z,15.40
2023-05-02T11:09:34.165Z,15.30
2023-05-02T11:12:05.068Z,15.30
2023-05-02T11:14:48.205Z,15.10
2023-05-02T11:17:19.378Z,14.90
2023-05-02T11:20:09.435Z,14.70
2023-05-02T11:22:44.074Z,14.50
2023-05-02T11:25:40.009Z,14.40
2023-05-02T11:28:48.431Z,14.30
2023-05-02T11:31:33.470Z,14.20
2023-05-02T11:34:04.020Z,14.20
2023-05-02T11:36:41.189Z,14.20
2023-05-02T11:39:23.659Z,14.20
2023-05-02T11:41:55.548Z,14.10
2023-05-02T11:44:26.965Z,14.10
2023-05-02T11:46:56.413Z,14.10
2023-05-02T11:49:29.016Z,14.20
2023-05-02T11:52:00.086Z,14.20
2023-05-02T11:54:30.516Z,14.20
2023-05-02T11:57:06.076Z,14.20
2023-05-02T11:59:57.984Z,14.20
2023-05-02T12:02:44.522Z,14.20
2023-05-02T12:05:34.046Z,14.10
2023-05-02T12:08:11.037Z,14.10
2023-05-02T12:10:41.393Z,14.00
2023-05-02T12:13:10.157Z,14.00
2023-05-02T12:15:42.781Z,13.90
2023-05-02T12:18:30.016Z,13.80
2023-05-02T12:21:02.972Z,13.90
2023-05-02T12:23:31.404Z,13.80
2023-05-02T12:26:01.494Z,13.80
2023-05-02T12:28:34.874Z,13.70
2023-05-02T12:31:12.621Z,13.70
2023-05-02T12:33:51.201Z,13.50
2023-05-02T12:36:27.477Z,13.50
2023-05-02T12:39:08.009Z,13.40
2023-05-02T12:41:46.703Z,13.30
2023-05-02T12:44:16.989Z,13.30
2023-05-02T12:47:10.660Z,13.20
2023-05-02T12:50:02.597Z,13.20
2023-05-02T12:52:51.655Z,13.30
2023-05-02T12:55:27.968Z,13.10
2023-05-02T12:58:14.376Z,13.00
2023-05-02T13:00:47.792Z,13.00
2023-05-02T13:03:17.746Z,12.80
2023-05-02T13:05:46.613Z,12.70
2023-05-02T13:08:22.802Z,12.60
2023-05-02T13:10:52.812Z,12.60
2023-05-02T13:13:23.045Z,12.50
2023-05-02T13:15:53.621Z,12.40
2023-05-02T13:18:26.356Z,12.40
2023-05-02T13:20:56.522Z,12.40
2023-05-02T13:23:24.231Z,12.40
2023-05-02T13:25:57.170Z,12.40
2023-05-02T13:28:26.739Z,12.50
2023-05-02T13:31:04.619Z,12.50
2023-05-02T13:33:35.380Z,12.60
2023-05-02T13:36:11.939Z,12.60
2023-05-02T13:38:43.653Z,12.70
2023-05-02T13:41:17.332Z,12.60
2023-05-02T13:43:44.849Z,12.80
2023-05-02T13:46:23.811Z,12.90
2023-05-02T13:48:51.682Z,12.90
2023-05-02T13:51:21.044Z,12.80
2023-05-02T13:53:50.849Z,12.80
2023-05-02T13:56:21.268Z,12.80
2023-05-02T13:58:59.837Z,12.70
2023-05-02T14:01:37.091Z,12.70
2023-05-02T14:04:11.838Z,12.70
2023-05-02T14:06:43.356Z,12.50
2023-05-02T14:09:14.771Z,12.50
2023-05-02T14:11:59.907Z,12.50
2023-05-02T14:14:29.201Z,12.60
2023-05-02T14:17:00.912Z,12.50
2023-05-02T14:19:37.405Z,12.60
2023-05-02T14:22:07.518Z,12.60
2023-05-02T14:24:39.737Z,12.50
2023-05-02T14:27:27.150Z,12.50
2023-05-02T14:29:58.156Z,12.50
2023-05-02T14:32:27.074Z,12.40
2023-05-02T14:35:01.831Z,12.40
2023-05-02T14:37:31.892Z,12.50
2023-05-02T14:40:02.776Z,12.50
2023-05-02T14:42:35.954Z,12.50
2023-05-02T14:45:16.388Z,12.50
2023-05-02T14:47:50.287Z,12.50
2023-05-02T14:50:20.476Z,12.50
2023-05-02T14:52:48.975Z,12.60
2023-05-02T14:55:19.450Z,12.40
2023-05-02T14:58:03.418Z,12.40
2023-05-02T15:00:41.127Z,12.40
2023-05-02T15:03:11.447Z,12.40
2023-05-02T15:06:00.618Z,12.40
2023-05-02T15:08:31.917Z,12.40
2023-05-02T15:11:09.832Z,12.30
2023-05-02T15:13:38.449Z,12.20
2023-05-02T15:16:07.430Z,12.10
2023-05-02T15:18:36.600Z,12.10
2023-05-02T15:21:07.491Z,12.10
2023-05-02T15:23:59.957Z,12.00
2023-05-02T15:26:37.832Z,12.10
2023-05-02T15:29:07.837Z,12.10
2023-05-02T15:31:40.522Z,12.00
2023-05-02T15:34:16.809Z,12.00
2023-05-02T15:36:50.485Z,12.10
2023-05-02T15:39:23.170Z,12.20
2023-05-02T15:41:52.554Z,12.20
2023-05-02T15:44:30.646Z,12.10
2023-05-02T15:47:01.305Z,12.00
2023-05-02T15:49:33.546Z,11.90
2023-05-02T15:52:04.410Z,11.90
2023-05-02T15:54:42.087Z,11.80
2023-05-02T15:57:13.904Z,11.80
2023-05-02T15:59:42.127Z,11.80
2023-05-02T16:02:20.355Z,11.80
2023-05-02T16:04:49.354Z,11.70
2023-05-02T16:07:17.396Z,11.70
2023-05-02T16:09:49.536Z,11.80
2023-05-02T16:12:50.178Z,11.90
2023-05-02T16:15:27.251Z,12.00
2023-05-02T16:17:57.079Z,12.00
2023-05-02T16:20:27.496Z,12.10
2023-05-02T16:22:57.245Z,12.10
2023-05-02T16:25:28.417Z,12.10
2023-05-02T16:27:58.262Z,12.10
2023-05-02T16:30:29.492Z,12.10
2023-05-02T16:32:59.313Z,12.00
2023-05-02T16:35:28.753Z,11.90
2023-05-02T16:38:06.440Z,11.80
2023-05-02T16:40:34.946Z,11.80
2023-05-02T16:43:04.881Z,11.70
2023-05-02T16:45:35.909Z,11.70
2023-05-02T16:48:15.977Z,11.60
2023-05-02T16:50:43.698Z,11.50
2023-05-02T16:53:12.481Z,11.50
2023-05-02T16:55:41.019Z,11.50
2023-05-02T16:58:12.368Z,11.50
2023-05-02T17:00:43.494Z,11.50
2023-05-02T17:03:13.801Z,11.50
2023-05-02T17:05:42.648Z,11.60
2023-05-02T17:08:15.103Z,11.50
2023-05-02T17:10:43.840Z,11.50
2023-05-02T17:13:17.228Z,11.60
2023-05-02T17:15:45.776Z,11.60
2023-05-02T17:18:25.269Z,11.60
2023-05-02T17:20:55.611Z,11.60
2023-05-02T17:23:31.097Z,11.70
2023-05-02T17:26:01.865Z,11.70
2023-05-02T17:28:36.911Z,11.80
2023-05-02T17:31:05.952Z,11.70
2023-05-02T17:33:35.096Z,11.70
2023-05-02T17:36:14.217Z,11.60
2023-05-02T17:38:42.248Z,11.50
2023-05-02T17:41:13.336Z,11.40
2023-05-02T17:43:43.896Z,11.50
2023-05-02T17:46:14.593Z,11.50
2023-05-02T17:48:50.104Z,11.40
2023-05-02T17:51:21.939Z,11.30
2023-05-02T17:53:57.363Z,11.30
2023-05-02T17:56:26.614Z,11.20
2023-05-02T17:58:58.448Z,11.20
2023-05-02T18:01:36.227Z,11.10
2023-05-02T18:04:08.723Z,11.10
2023-05-02T18:06:40.840Z,11.10
2023-05-02T18:09:10.036Z,11.30
2023-05-02T18:11:38.455Z,11.30
2023-05-02T18:14:10.405Z,11.30
2023-05-02T18:16:40.087Z,11.10
2023-05-02T18:19:17.828Z,11.10
2023-05-02T18:21:47.625Z,11.30
2023-05-02T18:24:17.811Z,11.40
2023-05-02T18:26:50.306Z,11.40
2023-05-02T18:29:20.234Z,11.40
2023-05-02T18:31:52.692Z,11.30
2023-05-02T18:34:22.611Z,11.30
2023-05-02T18:36:50.046Z,11.30
2023-05-02T18:39:29.621Z,11.40
2023-05-02T18:42:06.514Z,11.30
2023-05-02T18:44:41.283Z,11.20
2023-05-02T18:47:13.373Z,11.20
2023-05-02T18:49:41.906Z,11.20
2023-05-02T18:52:14.072Z,11.20
2023-05-02T18:54:42.460Z,11.30
2023-05-02T18:57:12.469Z,11.40
2023-05-02T18:59:42.931Z,11.30
2023-05-02T19:02:13.584Z,11.30
2023-05-02T19:04:43.517Z,11.30
2023-05-02T19:07:11.750Z,11.30
2023-05-02T19:09:39.179Z,11.40
2023-05-02T19:12:08.519Z,11.40
2023-05-02T19:14:39.968Z,11.30
2023-05-02T19:17:15.738Z,11.20
2023-05-02T19:19:50.439Z,11.10
2023-05-02T19:22:26.353Z,11.10
2023-05-02T19:24:57.647Z,11.10
2023-05-02T19:27:28.346Z,11.10
2023-05-02T19:30:00.060Z,11.10
2023-05-02T19:32:28.796Z,11.00
2023-05-02T19:34:58.798Z,11.20
2023-05-02T19:37:37.259Z,11.20
2023-05-02T19:40:09.917Z,11.20
2023-05-02T19:42:40.085Z,11.30
2023-05-02T19:45:11.036Z,11.40
2023-05-02T19:47:44.031Z,11.20
2023-05-02T19:50:13.814Z,11.30
2023-05-02T19:52:45.569Z,11.20
2023-05-02T19:55:20.065Z,10.90
2023-05-02T19:57:49.447Z,10.80
2023-05-02T20:00:22.776Z,10.80
2023-05-02T20:02:54.594Z,10.80
2023-05-02T20:05:28.520Z,11.10
2023-05-02T20:07:59.650Z,11.10
2023-05-02T20:10:29.816Z,11.00
2023-05-02T20:12:58.649Z,11.20
2023-05-02T20:15:29.583Z,11.30
2023-05-02T20:17:59.948Z,11.10
2023-05-02T20:20:29.909Z,11.10
2023-05-02T20:22:59.483Z,11.10
2023-05-02T20:25:29.291Z,11.00
2023-05-02T20:27:58.247Z,11.10
2023-05-02T20:30:25.565Z,11.10
2023-05-02T20:32:55.702Z,11.10
2023-05-02T20:35:24.985Z,11.00
2023-05-02T20:38:03.677Z,10.90
2023-05-02T20:40:41.028Z,10.80
2023-05-02T20:43:12.949Z,10.90
2023-05-02T20:45:43.748Z,11.10
2023-05-02T20:48:19.028Z,11.20
2023-05-02T20:50:59.573Z,10.80
2023-05-02T20:53:35.716Z,10.60
2023-05-02T20:56:05.757Z,10.40
2023-05-02T20:58:34.472Z,10.50
2023-05-02T21:01:05.952Z,10.40
2023-05-02T21:03:40.080Z,10.40
2023-05-02T21:06:09.646Z,10.40
2023-05-02T21:08:39.701Z,10.50
2023-05-02T21:11:20.216Z,10.50
2023-05-02T21:13:56.972Z,10.30
2023-05-02T21:16:27.910Z,10.50
2023-05-02T21:18:57.709Z,10.40
2023-05-02T21:21:26.839Z,10.40
2023-05-02T21:23:58.804Z,10.40
2023-05-02T21:26:27.133Z,10.60
2023-05-02T21:29:00.001Z,10.60
2023-05-02T21:31:28.375Z,10.50
2023-05-02T21:34:05.365Z,10.40
2023-05-02T21:36:34.507Z,10.40
2023-05-02T21:39:10.564Z,10.40
2023-05-02T21:41:39.222Z,10.60
2023-05-02T21:44:15.759Z,10.60
2023-05-02T21:46:44.900Z,10.70
2023-05-02T21:49:24.316Z,10.80
2023-05-02T21:51:54.779Z,10.60
2023-05-02T21:54:23.937Z,10.80
2023-05-02T21:56:55.010Z,10.90
2023-05-02T21:59:33.135Z,10.90
2023-05-02T22:02:02.872Z,10.80
2023-05-02T22:04:31.450Z,10.70
2023-05-02T22:07:02.346Z,10.70
2023-05-02T22:09:34.812Z,10.80
2023-05-02T22:12:06.155Z,10.90
2023-05-02T22:14:44.478Z,10.80
2023-05-02T22:17:19.752Z,10.60
2023-05-02T22:19:56.725Z,10.60
2023-05-02T22:22:28.567Z,10.70
2023-05-02T22:24:57.563Z,10.60
2023-05-02T22:27:28.310Z,10.80
2023-05-02T22:29:57.138Z,10.70
2023-05-02T22:32:26.193Z,10.70
2023-05-02T22:35:03.986Z,10.60
2023-05-02T22:37:40.650Z,10.30
2023-05-02T22:40:10.586Z,10.30
2023-05-02T22:42:38.896Z,10.30
2023-05-02T22:45:09.658Z,10.40
2023-05-02T22:47:44.711Z,10.20
2023-05-02T22:50:13.814Z,10.20
2023-05-02T22:52:45.172Z,10.20
2023-05-02T22:55:16.090Z,10.50
2023-05-02T22:57:46.439Z,10.30
2023-05-02T23:00:17.640Z,10.30
2023-05-02T23:02:46.681Z,10.30
2023-05-02T23:05:16.677Z,10.30
2023-05-02T23:07:46.724Z,10.40
2023-05-02T23:10:20.283Z,10.30
2023-05-02T23:12:49.031Z,10.20
2023-05-02T23:15:20.503Z,10.20
2023-05-02T23:17:50.523Z,10.30
2023-05-02T23:20:23.732Z,10.20
2023-05-02T23:22:54.324Z,10.20
2023-05-02T23:25:26.726Z,10.30
2023-05-02T23:27:59.637Z,10.30
2023-05-02T23:30:36.953Z,10.50
2023-05-02T23:33:06.515Z,10.30
2023-05-02T23:35:38.033Z,10.10
2023-05-02T23:38:10.816Z,10.20
2023-05-02T23:40:47.796Z,10.30
2023-05-02T23:43:24.018Z,10.30
2023-05-02T23:45:54.231Z,10.20
2023-05-02T23:48:25.974Z,10.10
2023-05-02T23:50:55.801Z,10.20
2023-05-02T23:53:24.328Z,10.30
2023-05-02T23:56:01.053Z,10.20
2023-05-02T23:58:39.829Z,10.10
